createdAt,value
2019-01-24T00:01:17.240Z,53.87
2019-01-24T00:04:06.625Z,65.90
2019-01-24T00:06:55.662Z,58.90
2019-01-24T00:09:44.936Z,54.70
2019-01-24T00:12:33.976Z,63.03
2019-01-24T00:15:22.956Z,62.67
2019-01-24T00:18:11.709Z,54.33
2019-01-24T00:21:00.156Z,60.77
2019-01-24T00:23:49.688Z,52.57
2019-01-24T00:26:38.268Z,63.07
2019-01-24T00:29:27.252Z,61.20
2019-01-24T00:32:16.257Z,58.23
2019-01-24T00:35:05.753Z,58.93
2019-01-24T00:37:42.438Z,62.50
2019-01-24T00:40:31.036Z,61.23
2019-01-24T00:43:20.332Z,58.57
2019-01-24T00:46:08.954Z,58.83
2019-01-24T00:48:57.681Z,61.47
2019-01-24T00:51:46.921Z,63.27
2019-01-24T00:54:36.128Z,63.60
2019-01-24T00:57:25.524Z,64.93
2019-01-24T01:00:18.014Z,66.30
2019-01-24T01:03:07.158Z,67.17
2019-01-24T01:05:56.780Z,61.53
2019-01-24T01:08:26.749Z,57.67
2019-01-24T01:11:15.596Z,55.37
2019-01-24T01:14:05.617Z,63.33
2019-01-24T01:16:54.374Z,63.40
2019-01-24T01:19:43.468Z,62.77
2019-01-24T01:22:32.317Z,63.33
2019-01-24T01:25:21.722Z,59.37
2019-01-24T01:28:10.544Z,61.50
2019-01-24T01:30:58.994Z,65.37
2019-01-24T01:33:48.023Z,66.00
2019-01-24T01:36:37.335Z,63.30
2019-01-24T01:39:10.706Z,66.13
2019-01-24T01:41:59.822Z,68.03
2019-01-24T01:44:48.670Z,66.33
2019-01-24T01:47:37.415Z,62.43
2019-01-24T01:50:26.885Z,65.23
2019-01-24T01:53:16.079Z,59.60
2019-01-24T01:56:05.021Z,67.13
2019-01-24T01:58:54.029Z,65.13
2019-01-24T02:01:43.099Z,61.03
2019-01-24T02:04:31.787Z,62.57
2019-01-24T02:07:20.796Z,60.10
2019-01-24T02:10:13.802Z,63.70
2019-01-24T02:13:03.165Z,66.83
2019-01-24T02:15:52.111Z,61.30
2019-01-24T02:18:40.929Z,57.90
2019-01-24T02:21:30.777Z,63.70
2019-01-24T02:24:19.652Z,63.93
2019-01-24T02:27:08.545Z,54.57
2019-01-24T02:29:57.671Z,51.67
2019-01-24T02:32:46.226Z,59.47
2019-01-24T02:35:34.736Z,54.30
2019-01-24T02:38:23.922Z,57.60
2019-01-24T02:41:13.002Z,56.50
2019-01-24T02:43:53.043Z,56.63
2019-01-24T02:46:41.665Z,58.27
2019-01-24T02:49:30.434Z,63.33
2019-01-24T02:52:19.408Z,62.30
2019-01-24T02:55:11.439Z,57.20
2019-01-24T02:58:00.837Z,65.87
2019-01-24T03:00:50.272Z,60.70
2019-01-24T03:03:39.178Z,57.50
2019-01-24T03:06:27.788Z,61.30
2019-01-24T03:08:57.904Z,64.90
2019-01-24T03:11:46.923Z,57.17
2019-01-24T03:14:35.649Z,57.97
2019-01-24T03:17:24.324Z,61.57
2019-01-24T03:20:15.303Z,61.70
2019-01-24T03:23:04.314Z,61.73
2019-01-24T03:25:53.416Z,60.50
2019-01-24T03:28:42.463Z,67.60
2019-01-24T03:31:31.525Z,63.90
2019-01-24T03:34:01.497Z,62.23
2019-01-24T03:36:50.900Z,58.87
2019-01-24T03:39:39.702Z,63.33
2019-01-24T03:42:28.732Z,57.57
2019-01-24T03:45:10.005Z,61.57
2019-01-24T03:47:58.428Z,59.03
2019-01-24T03:50:47.137Z,63.00
2019-01-24T03:53:35.935Z,66.60
2019-01-24T03:56:25.332Z,62.83
2019-01-24T03:59:14.057Z,65.83
2019-01-24T04:02:02.756Z,61.20
2019-01-24T04:04:51.746Z,56.20
2019-01-24T04:07:40.363Z,66.83
2019-01-24T04:10:29.061Z,70.30
2019-01-24T04:13:18.173Z,61.53
2019-01-24T04:16:07.094Z,62.27
2019-01-24T04:18:56.839Z,66.30
2019-01-24T04:21:45.861Z,65.80
2019-01-24T04:24:34.922Z,67.03
2019-01-24T04:27:23.606Z,57.40
2019-01-24T04:30:15.675Z,65.73
2019-01-24T04:33:04.820Z,70.97
2019-01-24T04:35:53.327Z,72.93
2019-01-24T04:38:41.933Z,62.23
2019-01-24T04:41:31.198Z,64.47
2019-01-24T04:44:01.296Z,61.17
2019-01-24T04:46:50.229Z,66.43
2019-01-24T04:49:39.421Z,64.00
2019-01-24T04:52:28.721Z,64.83
2019-01-24T04:54:59.017Z,67.03
2019-01-24T04:57:47.953Z,66.13
2019-01-24T05:00:37.105Z,65.20
2019-01-24T05:03:25.534Z,65.40
2019-01-24T05:06:14.703Z,67.33
2019-01-24T05:09:05.273Z,66.53
2019-01-24T05:11:54.285Z,61.10
2019-01-24T05:14:42.996Z,73.00
2019-01-24T05:17:31.653Z,69.67
2019-01-24T05:20:20.705Z,66.27
2019-01-24T05:23:09.938Z,68.30
2019-01-24T05:25:58.674Z,65.87
2019-01-24T05:28:48.197Z,71.93
2019-01-24T05:31:37.164Z,63.27
2019-01-24T05:34:25.853Z,76.27
2019-01-24T05:37:15.196Z,74.87
2019-01-24T05:40:04.602Z,70.87
2019-01-24T05:42:53.658Z,74.77
2019-01-24T05:45:42.147Z,70.27
2019-01-24T05:48:31.753Z,71.47
2019-01-24T05:51:20.930Z,72.77
2019-01-24T05:54:10.169Z,73.23
2019-01-24T05:56:58.865Z,70.27
2019-01-24T05:59:47.581Z,73.10
2019-01-24T06:02:37.058Z,67.53
2019-01-24T06:05:25.373Z,75.37
2019-01-24T06:08:14.718Z,73.40
2019-01-24T06:11:03.241Z,72.87
2019-01-24T06:13:52.589Z,65.23
2019-01-24T06:16:40.708Z,76.20
2019-01-24T06:19:29.335Z,76.00
2019-01-24T06:22:17.892Z,74.20
2019-01-24T06:25:07.585Z,74.90
2019-01-24T06:27:56.432Z,62.80
2019-01-24T06:30:45.656Z,73.63
2019-01-24T06:33:34.521Z,76.20
2019-01-24T06:36:23.624Z,73.93
2019-01-24T06:39:12.480Z,70.67
2019-01-24T06:42:01.133Z,73.87
2019-01-24T06:44:50.308Z,74.07
2019-01-24T06:47:39.093Z,68.20
2019-01-24T06:50:28.611Z,73.27
2019-01-24T06:53:17.767Z,71.33
2019-01-24T06:56:07.248Z,70.83
2019-01-24T06:58:56.277Z,65.33
2019-01-24T07:01:45.272Z,67.20
2019-01-24T07:04:34.302Z,67.03
2019-01-24T07:07:23.445Z,58.60
2019-01-24T07:10:15.309Z,70.13
2019-01-24T07:13:04.492Z,74.33
2019-01-24T07:15:53.863Z,66.87
2019-01-24T07:18:42.819Z,66.83
2019-01-24T07:21:32.263Z,72.13
2019-01-24T07:24:21.733Z,67.60
2019-01-24T07:27:10.957Z,67.97
2019-01-24T07:29:59.962Z,71.37
2019-01-24T07:32:48.862Z,61.90
2019-01-24T07:35:38.372Z,67.93
2019-01-24T07:38:27.455Z,70.87
2019-01-24T07:41:16.777Z,72.80
2019-01-24T07:44:05.801Z,70.67
2019-01-24T07:46:55.089Z,72.53
2019-01-24T07:49:43.780Z,72.67
2019-01-24T07:52:33.348Z,83.63
2019-01-24T07:55:22.732Z,83.10
2019-01-24T07:58:11.227Z,82.80
2019-01-24T08:00:59.969Z,79.20
2019-01-24T08:03:49.352Z,78.17
2019-01-24T08:06:38.330Z,84.47
2019-01-24T08:09:27.912Z,80.83
2019-01-24T08:12:16.835Z,78.27
2019-01-24T08:15:06.906Z,74.70
2019-01-24T08:17:55.573Z,85.80
2019-01-24T08:20:44.131Z,90.53
2019-01-24T08:23:33.146Z,88.87
2019-01-24T08:26:22.262Z,86.63
2019-01-24T08:29:11.440Z,81.57
2019-01-24T08:32:00.045Z,88.93
2019-01-24T08:34:49.780Z,85.77
2019-01-24T08:37:38.949Z,83.33
2019-01-24T08:40:28.208Z,83.50
2019-01-24T08:43:17.213Z,83.77
2019-01-24T08:46:06.284Z,94.13
2019-01-24T08:48:55.452Z,88.20
2019-01-24T08:51:44.125Z,89.00
2019-01-24T08:54:32.899Z,87.30
2019-01-24T08:57:22.292Z,92.80
2019-01-24T09:00:13.902Z,83.43
2019-01-24T09:03:03.145Z,94.37
2019-01-24T09:05:52.345Z,76.13
2019-01-24T09:08:41.272Z,88.27
2019-01-24T09:11:30.245Z,88.87
2019-01-24T09:14:19.784Z,79.90
2019-01-24T09:17:08.171Z,84.17
2019-01-24T09:19:57.353Z,90.10
2019-01-24T09:22:47.012Z,83.53
2019-01-24T09:25:36.309Z,99.70
2019-01-24T09:28:25.137Z,95.50
2019-01-24T09:31:14.331Z,97.80
2019-01-24T09:34:03.736Z,89.80
2019-01-24T09:36:52.800Z,84.03
2019-01-24T09:39:41.685Z,94.40
2019-01-24T09:42:31.227Z,96.60
2019-01-24T09:45:22.351Z,94.43
2019-01-24T09:48:11.477Z,97.53
2019-01-24T09:51:00.690Z,103.60
2019-01-24T09:53:50.365Z,97.00
2019-01-24T09:56:39.481Z,95.90
2019-01-24T09:59:28.077Z,100.83
2019-01-24T10:02:17.437Z,102.33
2019-01-24T10:05:08.244Z,95.77
2019-01-24T10:07:57.337Z,91.23
2019-01-24T10:10:46.065Z,99.37
2019-01-24T10:13:35.397Z,97.47
2019-01-24T10:16:24.152Z,108.67
2019-01-24T10:19:13.244Z,98.63
2019-01-24T10:22:02.153Z,92.03
2019-01-24T10:24:51.116Z,90.50
2019-01-24T10:27:40.431Z,90.63
2019-01-24T10:30:29.907Z,87.20
2019-01-24T10:33:19.071Z,83.33
2019-01-24T10:36:07.638Z,82.33
2019-01-24T10:38:57.289Z,88.23
2019-01-24T10:41:46.183Z,96.57
2019-01-24T10:44:35.886Z,89.30
2019-01-24T10:47:24.704Z,88.30
2019-01-24T10:50:15.067Z,84.87
2019-01-24T10:53:03.959Z,86.93
2019-01-24T10:55:59.765Z,83.33
2019-01-24T10:58:48.197Z,87.90
2019-01-24T11:01:37.345Z,82.93
2019-01-24T11:04:26.138Z,77.07
2019-01-24T11:07:15.396Z,92.40
2019-01-24T11:10:05.681Z,86.30
2019-01-24T11:12:54.795Z,88.13
2019-01-24T11:15:44.416Z,83.57
2019-01-24T11:18:33.794Z,87.57
2019-01-24T11:21:23.516Z,95.50
2019-01-24T11:24:12.434Z,92.57
2019-01-24T11:27:03.275Z,86.47
2019-01-24T11:29:51.972Z,89.50
2019-01-24T11:32:41.211Z,92.10
2019-01-24T11:35:32.701Z,96.33
2019-01-24T11:38:21.662Z,82.97
2019-01-24T11:41:11.080Z,80.10
2019-01-24T11:43:59.950Z,83.53
2019-01-24T11:46:48.682Z,87.30
2019-01-24T11:49:38.429Z,83.87
2019-01-24T11:52:27.052Z,87.23
2019-01-24T11:55:17.661Z,85.97
2019-01-24T11:58:07.673Z,83.90
2019-01-24T12:00:57.312Z,85.03
2019-01-24T12:03:46.818Z,83.43
2019-01-24T12:06:36.594Z,89.07
2019-01-24T12:09:25.296Z,95.57
2019-01-24T12:12:14.509Z,89.97
2019-01-24T12:15:03.353Z,92.10
2019-01-24T12:17:52.389Z,89.43
2019-01-24T12:20:40.813Z,77.43
2019-01-24T12:23:29.561Z,81.77
2019-01-24T12:26:19.101Z,89.97
2019-01-24T12:29:08.061Z,79.63
2019-01-24T12:31:57.653Z,81.07
2019-01-24T12:34:46.695Z,84.50
2019-01-24T12:37:35.979Z,83.47
2019-01-24T12:40:25.040Z,83.47
2019-01-24T12:43:14.297Z,80.97
2019-01-24T12:46:03.557Z,84.57
2019-01-24T12:48:53.005Z,91.73
2019-01-24T12:51:41.661Z,84.47
2019-01-24T12:54:30.890Z,82.93
2019-01-24T12:57:19.689Z,85.40
2019-01-24T13:00:20.762Z,94.23
2019-01-24T13:03:09.527Z,91.47
2019-01-24T13:05:58.537Z,91.67
2019-01-24T13:08:47.100Z,80.27
2019-01-24T13:11:36.245Z,75.37
2019-01-24T13:14:26.015Z,76.90
2019-01-24T13:17:14.508Z,82.77
2019-01-24T13:20:03.473Z,75.57
2019-01-24T13:22:52.622Z,94.20
2019-01-24T13:25:41.209Z,83.40
2019-01-24T13:28:30.623Z,83.73
2019-01-24T13:31:19.454Z,80.50
2019-01-24T13:34:07.977Z,81.20
2019-01-24T13:36:57.084Z,84.80
2019-01-24T13:39:45.668Z,77.97
2019-01-24T13:42:35.218Z,74.43
2019-01-24T13:45:29.308Z,78.77
2019-01-24T13:48:18.217Z,80.67
2019-01-24T13:51:07.351Z,83.20
2019-01-24T13:53:56.319Z,86.67
2019-01-24T13:56:45.092Z,76.63
2019-01-24T13:59:34.404Z,72.70
2019-01-24T14:02:23.298Z,81.37
2019-01-24T14:05:14.059Z,81.37
2019-01-24T14:08:03.388Z,81.93
2019-01-24T14:10:52.202Z,83.73
2019-01-24T14:13:41.542Z,83.30
2019-01-24T14:16:30.895Z,79.87
2019-01-24T14:19:20.133Z,77.80
2019-01-24T14:22:09.072Z,76.27
2019-01-24T14:24:58.366Z,90.90
2019-01-24T14:27:47.687Z,79.77
2019-01-24T14:30:36.216Z,86.80
2019-01-24T14:33:25.039Z,75.57
2019-01-24T14:36:13.904Z,80.67
2019-01-24T14:39:04.347Z,78.57
2019-01-24T14:41:53.689Z,82.27
2019-01-24T14:44:42.752Z,77.17
2019-01-24T14:47:31.313Z,81.53
2019-01-24T14:50:22.324Z,76.70
2019-01-24T14:53:11.106Z,74.30
2019-01-24T14:55:59.959Z,79.10
2019-01-24T14:58:49.100Z,79.17
2019-01-24T15:01:37.730Z,78.27
2019-01-24T15:04:26.725Z,75.40
2019-01-24T15:07:15.647Z,81.23
2019-01-24T15:10:04.666Z,73.70
2019-01-24T15:12:54.475Z,78.07
2019-01-24T15:15:44.476Z,76.10
2019-01-24T15:18:33.813Z,80.80
2019-01-24T15:21:22.813Z,80.63
2019-01-24T15:24:11.922Z,72.20
2019-01-24T15:27:00.880Z,72.33
2019-01-24T15:29:50.154Z,78.73
2019-01-24T15:32:38.731Z,76.50
2019-01-24T15:35:27.844Z,78.43
2019-01-24T15:38:16.732Z,86.47
2019-01-24T15:41:06.222Z,81.07
2019-01-24T15:43:55.222Z,76.57
2019-01-24T15:46:44.579Z,75.43
2019-01-24T15:49:33.576Z,78.73
2019-01-24T15:52:23.171Z,72.73
2019-01-24T15:55:11.886Z,73.60
2019-01-24T15:58:00.963Z,76.20
2019-01-24T16:00:50.173Z,69.20
2019-01-24T16:03:39.051Z,68.27
2019-01-24T16:06:27.638Z,76.37
2019-01-24T16:09:16.979Z,74.97
2019-01-24T16:12:06.161Z,75.10
2019-01-24T16:14:54.947Z,72.63
2019-01-24T16:17:45.049Z,67.60
2019-01-24T16:20:34.524Z,67.87
2019-01-24T16:23:23.472Z,67.53
2019-01-24T16:26:12.425Z,60.23
2019-01-24T16:29:01.928Z,64.77
2019-01-24T16:31:51.170Z,59.77
2019-01-24T16:34:39.953Z,66.43
2019-01-24T16:37:29.714Z,66.53
2019-01-24T16:40:19.704Z,65.53
2019-01-24T16:43:08.946Z,80.70
2019-01-24T16:45:58.209Z,76.17
2019-01-24T16:48:47.636Z,65.60
2019-01-24T16:51:37.087Z,68.83
2019-01-24T16:54:26.378Z,72.33
2019-01-24T16:57:14.775Z,68.60
2019-01-24T17:00:04.895Z,72.17
2019-01-24T17:02:53.961Z,73.67
2019-01-24T17:05:43.267Z,71.20
2019-01-24T17:08:33.480Z,67.47
2019-01-24T17:11:23.790Z,69.33
2019-01-24T17:14:13.248Z,76.13
2019-01-24T17:17:02.492Z,69.73
2019-01-24T17:19:51.653Z,68.70
2019-01-24T17:22:41.330Z,65.00
2019-01-24T17:25:30.754Z,68.40
2019-01-24T17:28:20.341Z,77.70
2019-01-24T17:31:09.693Z,70.77
2019-01-24T17:33:58.912Z,75.17
2019-01-24T17:36:47.653Z,71.67
2019-01-24T17:39:37.070Z,65.33
2019-01-24T17:42:26.065Z,69.77
2019-01-24T17:45:15.809Z,77.17
2019-01-24T17:48:06.443Z,66.50
2019-01-24T17:50:55.955Z,68.90
2019-01-24T17:53:45.170Z,69.70
2019-01-24T17:56:33.953Z,73.37
2019-01-24T17:59:22.868Z,76.00
2019-01-24T18:02:12.002Z,73.13
2019-01-24T18:05:00.884Z,72.77
2019-01-24T18:07:50.488Z,70.23
2019-01-24T18:10:39.811Z,71.30
2019-01-24T18:13:29.030Z,73.10
2019-01-24T18:16:18.363Z,73.00
2019-01-24T18:19:07.062Z,72.77
2019-01-24T18:21:56.177Z,77.07
2019-01-24T18:24:44.582Z,72.93
2019-01-24T18:27:33.378Z,72.67
2019-01-24T18:30:24.640Z,83.57
2019-01-24T18:33:14.037Z,73.47
2019-01-24T18:36:03.929Z,78.13
2019-01-24T18:38:53.508Z,75.57
2019-01-24T18:41:42.381Z,75.50
2019-01-24T18:44:32.507Z,74.10
2019-01-24T18:47:22.871Z,73.70
2019-01-24T18:50:15.894Z,83.33
2019-01-24T18:53:05.633Z,71.37
2019-01-24T18:55:55.068Z,77.30
2019-01-24T18:58:44.467Z,69.47
2019-01-24T19:01:33.111Z,74.10
2019-01-24T19:04:22.808Z,71.07
2019-01-24T19:07:12.433Z,72.37
2019-01-24T19:09:44.141Z,78.83
2019-01-24T19:12:33.089Z,73.93
2019-01-24T19:15:22.012Z,77.97
2019-01-24T19:18:13.181Z,76.27
2019-01-24T19:21:02.590Z,81.03
2019-01-24T19:23:51.952Z,75.90
2019-01-24T19:26:40.538Z,76.77
2019-01-24T19:29:29.878Z,79.47
2019-01-24T19:32:19.087Z,76.03
2019-01-24T19:35:08.460Z,76.37
2019-01-24T19:37:58.415Z,78.50
2019-01-24T19:40:47.991Z,75.47
2019-01-24T19:43:37.095Z,76.40
2019-01-24T19:46:26.399Z,81.97
2019-01-24T19:49:15.852Z,77.57
2019-01-24T19:52:05.153Z,80.27
2019-01-24T19:54:55.642Z,81.77
2019-01-24T19:57:43.046Z,77.60
2019-01-24T20:00:33.123Z,78.10
2019-01-24T20:03:22.442Z,81.63
2019-01-24T20:06:11.809Z,71.23
2019-01-24T20:09:01.349Z,87.87
2019-01-24T20:11:50.355Z,85.33
2019-01-24T20:14:40.314Z,74.60
2019-01-24T20:17:29.616Z,78.60
2019-01-24T20:20:19.183Z,77.67
2019-01-24T20:23:08.905Z,83.23
2019-01-24T20:25:58.876Z,89.00
2019-01-24T20:28:47.997Z,85.00
2019-01-24T20:31:37.349Z,81.80
2019-01-24T20:34:26.234Z,82.60
2019-01-24T20:37:15.525Z,80.70
2019-01-24T20:40:06.259Z,85.37
2019-01-24T20:42:55.571Z,87.10
2019-01-24T20:45:45.307Z,77.90
2019-01-24T20:48:34.869Z,77.80
2019-01-24T20:51:24.082Z,85.60
2019-01-24T20:54:13.602Z,83.97
2019-01-24T20:57:03.824Z,81.90
2019-01-24T20:59:52.474Z,85.63
2019-01-24T21:02:40.980Z,79.60
2019-01-24T21:05:30.320Z,84.83
2019-01-24T21:08:19.591Z,77.87
2019-01-24T21:11:09.142Z,92.63
2019-01-24T21:13:58.640Z,89.90
2019-01-24T21:16:47.533Z,88.20
2019-01-24T21:19:36.430Z,89.83
2019-01-24T21:22:26.692Z,81.20
2019-01-24T21:25:17.404Z,88.23
2019-01-24T21:27:50.950Z,96.20
2019-01-24T21:30:40.636Z,89.67
2019-01-24T21:33:29.621Z,82.00
2019-01-24T21:36:18.427Z,86.93
2019-01-24T21:39:09.579Z,90.10
2019-01-24T21:41:59.132Z,91.53
2019-01-24T21:44:48.365Z,93.40
2019-01-24T21:47:37.762Z,89.47
2019-01-24T21:50:27.434Z,85.43
2019-01-24T21:53:16.841Z,96.77
2019-01-24T21:56:06.383Z,80.30
2019-01-24T21:58:55.462Z,83.73
2019-01-24T22:01:44.776Z,84.20
2019-01-24T22:04:34.124Z,97.00
2019-01-24T22:07:22.878Z,92.47
2019-01-24T22:10:13.902Z,81.00
2019-01-24T22:13:03.338Z,78.63
2019-01-24T22:15:52.458Z,94.23
2019-01-24T22:18:41.965Z,84.00
2019-01-24T22:21:31.155Z,87.63
2019-01-24T22:24:20.014Z,86.30
2019-01-24T22:27:10.516Z,90.97
2019-01-24T22:29:59.801Z,89.13
2019-01-24T22:32:31.274Z,94.67
2019-01-24T22:35:20.708Z,84.57
2019-01-24T22:38:10.574Z,83.73
2019-01-24T22:40:59.045Z,98.30
2019-01-24T22:43:47.812Z,93.03
2019-01-24T22:46:36.436Z,88.40
2019-01-24T22:49:25.525Z,84.80
2019-01-24T22:52:14.985Z,92.73
2019-01-24T22:55:01.280Z,97.93
2019-01-24T22:57:50.247Z,104.03
2019-01-24T23:01:03.241Z,93.67
2019-01-24T23:03:58.090Z,87.13
2019-01-24T23:06:46.928Z,104.47
2019-01-24T23:09:36.020Z,101.73
2019-01-24T23:12:25.296Z,104.03
2019-01-24T23:15:14.709Z,89.30
2019-01-24T23:18:03.037Z,104.23
2019-01-24T23:20:52.734Z,104.67
2019-01-24T23:23:41.855Z,103.67
2019-01-24T23:26:30.950Z,104.53
2019-01-24T23:29:20.141Z,110.40
2019-01-24T23:32:09.408Z,107.23
2019-01-24T23:34:57.992Z,95.90
2019-01-24T23:37:52.344Z,89.27
2019-01-24T23:40:37.463Z,94.77
2019-01-24T23:43:26.352Z,93.60
2019-01-24T23:46:15.589Z,114.13
2019-01-24T23:49:04.390Z,102.73
2019-01-24T23:51:53.330Z,103.87
2019-01-24T23:54:42.959Z,98.07
2019-01-24T23:57:31.914Z,109.80
